This is the latest recevied weather packets stored in our database for station/object KC3VCX. If no packets are shown the sender has not sent any weather packets the latest 10 day(s).
| Time | Temp. | Humidity | Pressure | Rain* | Wind** | Luminosity | Snow |
|---|---|---|---|---|---|---|---|
| 1777230135 | 12.78° C | 63% | 1022 hPa | 0 mm | - | 773 W/m² | - |
| 1777229833 | 12.22° C | 67% | 1021.9 hPa | 0 mm | - | 831 W/m² | - |
| 1777229529 | 12.22° C | 66% | 1022 hPa | 0 mm | - | 781 W/m² | - |
| 1777229226 | 12.22° C | 67% | 1022.1 hPa | 0 mm | - | 867 W/m² | - |
| 1777228923 | 11.67° C | 68% | 1022.3 hPa | 0 mm | - | 774 W/m² | - |
| 1777228618 | 11.67° C | 68% | 1022.1 hPa | 0 mm | - | 884 W/m² | - |
| 1777228315 | 12.22° C | 67% | 1022.2 hPa | 0 mm | - | 362 W/m² | - |
| 1777228010 | 10.56° C | 70% | 1022.1 hPa | 0 mm | - | 964 W/m² | - |
| 1777227704 | 10.56° C | 71% | 1022.1 hPa | 0 mm | - | 409 W/m² | - |
| 1777227401 | 11.11° C | 71% | 1022.2 hPa | 0 mm | - | 438 W/m² | - |
| 1777227098 | 10.56° C | 71% | 1022.1 hPa | 0 mm | - | 373 W/m² | - |
| 1777226794 | 10.56° C | 72% | 1022.2 hPa | 0 mm | - | 360 W/m² | - |
| 1777226493 | 10.56° C | 71% | 1022.3 hPa | 0 mm | - | 398 W/m² | - |
| 1777226189 | 10.56° C | 71% | 1022.1 hPa | 0 mm | - | 328 W/m² | - |
| 1777225886 | 10° C | 73% | 1022.2 hPa | 0 mm | - | 387 W/m² | - |
| 1777225581 | 10.56° C | 73% | 1021.9 hPa | 0 mm | - | 324 W/m² | - |
| 1777225278 | 10.56° C | 72% | 1022 hPa | 0 mm | - | 347 W/m² | - |
| 1777224975 | 10.56° C | 72% | 1022 hPa | 0 mm | - | 348 W/m² | - |
| 1777224672 | 10° C | 73% | 1022 hPa | 0 mm | - | 338 W/m² | - |
| 1777224366 | 10° C | 73% | 1022 hPa | 0 mm | - | 287 W/m² | - |
| 1777224063 | 10° C | 73% | 1022.2 hPa | 0 mm | - | 313 W/m² | - |
| 1777223760 | 10° C | 74% | 1022.1 hPa | 0 mm | - | 282 W/m² | - |
| 1777223455 | 10.56° C | 73% | 1022.1 hPa | 0 mm | - | 280 W/m² | - |
| 1777223154 | 10° C | 74% | 1022.1 hPa | 0 mm | - | 263 W/m² | - |
| 1777222850 | 10° C | 73% | 1022 hPa | 0 mm | - | 304 W/m² | - |
* Rain latest hour (hover to see other rain measurements)
** Current wind speed in m/s (hover to see current wind gust speed)